Terminal Aerodrome Forecast
Issued by NWS Hastings, NE

Home | Current Version | Previous Version | Text Only | Print | Product List | Glossary On
Versions: 1 2 3 4 5 6 7 8 9 10 11 12 13 14 15
000
FTUS45 KGID 222334
TAFEAR
TAF
KEAR 222334Z 2300/2324 01020G28KT P6SM SCT150
     FM230300 01013KT P6SM BKN130
     FM230500 36008KT P6SM BKN200
     FM231200 35012KT P6SM BKN120
     FM231600 34017G25KT P6SM SCT110
      AMD LTD TO CLD VIS AND WIND=

USA.gov is the U.S. government's official web portal to all federal, state and local government web resources and services.